KBKV Airport Information

Runway Information
Runway 03 Length 5015 ft width 150 ft
Elevation 68 ft Threshold 0 ft Heading 26
Runway 21 Length 5015 ft Width 150 ft
Elevation 69 ft Threshold 0 ft Heading 206
Runway 09 Length 7001 ft width 150 ft
Elevation 71 ft Threshold 0 ft Heading 90
Runway 27 Length 7001 ft Width 150 ft
Elevation 70 ft Threshold 0 ft Heading 270
Airport Frequencies
Type A/D Name TAMPA APP/ Frequency 125.3 MHZ
Type ASOS Name ASOS Frequency 134.725 MHZ
Type CLD Name TAMPA CLNC Frequency 119.125 MHZ
Type OPS Name ARNG OPS Frequency 40.9 MHZ
Type RDO Name ST PETERSB Frequency 122.3 MHZ
Type UNIC Name CTAF/UNICO Frequency 123 MHZ
Airport Navaids
Airport Weather Information & NOTAM
ADDS - METARS form results

(0614 UTC 22 January 2021)
Data provider http://aviationweather.gov/metar/data/
 
METAR text: KBKV 220553Z AUTO 21004KT 10SM SCT065 14/12 A3003 RMK AO2 SLP168 T01390117 10144 20100 56010
Conditions at: KBKV (BROOKSVILLE , FL, US) observed 0553 UTC 22 January 2021
Temperature: 13.9°C (57°F)
Dewpoint: 11.7°C (53°F) [RH = 87%]
Pressure (altimeter): 30.03 inches Hg (1017.0 mb)
[Sea-level pressure: 1016.8 mb]
Winds: from the SSW (210 degrees) at 5 MPH (4 knots; 2.1 m/s)
Visibility: 10 or more miles (16+ km)
Ceiling: at least 12,000 feet AGL
Clouds: scattered clouds at 6500 feet AGL
Weather: automated observation with no human augmentation;
there may or may not be significant weather present at this time